RAIN

Not for real navigation. The accuracy of this data is not assured See disclaimer for more information



ICAO NAME COUNTRY WIND Kt GUST Kt VIS m TEMP/DEW C BARO METAR
CYHK Gjoa Haven Airport Canada 15 0 200 7/7 30.08 CYHK 191300Z AUTO 02015KT 0.125SM -RA FG VV002 07/07 A3008 RMK SLP192
KBOK Brookings, Brookings Airport OR United States 4 0 400 11/11 29.98 KBOK 191325Z AUTO 15004KT 0.25SM -RA FG OVC003 11/11 A2998 RMK AO2 RAB09 P0000
KAMG ALMA BACON COUNTY AIRPORT GA United States 6 0 800 23/23 30.07 KAMG 191340Z AUTO 12006KT 0.5SM +RA FG SCT007 OVC013 23/23 A3007 RMK AO2 RAB1257 P0042 T02330233
KBGR BANGOR INT’L AIRPORT ME United States 6 0 800 18/18 29.97 KBGR 191253Z 16006KT 0.5SM R15/4500VP6000FT BR OVC002 18/18 A2997 RMK AO2 SFC VIS 3/4 RAB04E25 SLP14
KVLD VALDOSTA REGIONAL AIRPORT GA United States 7 0 1200 23/23 30.08 KVLD 191335Z 18007KT 0.75SM +RA BR BKN005 OVC010 23/23 A3008 RMK AO2 VIS 1/2V4 P0015 T02330228

Show more